createdAt,value
2023-06-19T00:02:16.896Z,28.40
2023-06-19T00:04:50.340Z,28.40
2023-06-19T00:07:20.183Z,28.40
2023-06-19T00:10:00.205Z,28.40
2023-06-19T00:12:28.139Z,28.30
2023-06-19T00:15:01.891Z,28.30
2023-06-19T00:17:38.416Z,28.30
2023-06-19T00:20:14.575Z,28.20
2023-06-19T00:22:52.765Z,28.20
2023-06-19T00:25:26.865Z,28.20
2023-06-19T00:27:57.100Z,28.20
2023-06-19T00:30:28.074Z,28.20
2023-06-19T00:32:56.763Z,28.20
2023-06-19T00:35:24.749Z,28.10
2023-06-19T00:38:01.938Z,28.10
2023-06-19T00:40:34.948Z,28.10
2023-06-19T00:43:05.903Z,28.10
2023-06-19T00:45:33.910Z,28.10
2023-06-19T00:48:06.797Z,28.10
2023-06-19T00:50:35.064Z,28.10
2023-06-19T00:53:11.359Z,28.10
2023-06-19T00:55:39.934Z,28.00
2023-06-19T00:58:08.255Z,28.00
2023-06-19T01:00:47.460Z,27.90
2023-06-19T01:03:20.927Z,27.90
2023-06-19T01:05:51.563Z,27.80
2023-06-19T01:08:45.064Z,27.80
2023-06-19T01:11:25.911Z,27.80
2023-06-19T01:13:59.254Z,27.80
2023-06-19T01:16:27.697Z,27.70
2023-06-19T01:19:11.837Z,27.70
2023-06-19T01:21:40.233Z,27.60
2023-06-19T01:24:12.074Z,27.70
2023-06-19T01:26:40.099Z,27.60
2023-06-19T01:29:10.869Z,27.60
2023-06-19T01:31:44.886Z,27.60
2023-06-19T01:34:18.670Z,27.60
2023-06-19T01:36:47.819Z,27.50
2023-06-19T01:39:23.541Z,27.50
2023-06-19T01:41:52.483Z,27.50
2023-06-19T01:44:22.666Z,27.50
2023-06-19T01:46:51.288Z,27.40
2023-06-19T01:49:19.503Z,27.40
2023-06-19T01:51:56.249Z,27.80
2023-06-19T01:54:28.755Z,27.30
2023-06-19T01:56:56.758Z,27.30
2023-06-19T01:59:24.793Z,27.30
2023-06-19T02:01:55.523Z,27.20
2023-06-19T02:04:25.436Z,27.10
2023-06-19T02:06:53.361Z,27.10
2023-06-19T02:09:21.277Z,27.10
2023-06-19T02:11:50.528Z,27.10
2023-06-19T02:14:21.278Z,27.10
2023-06-19T02:16:49.182Z,27.20
2023-06-19T02:19:19.896Z,27.20
2023-06-19T02:21:47.796Z,27.30
2023-06-19T02:24:15.748Z,27.30
2023-06-19T02:26:45.003Z,27.30
2023-06-19T02:29:14.275Z,27.30
2023-06-19T02:31:53.560Z,27.20
2023-06-19T02:34:25.271Z,27.20
2023-06-19T02:36:53.193Z,27.20
2023-06-19T02:39:27.000Z,27.10
2023-06-19T02:41:57.762Z,27.10
2023-06-19T02:44:30.046Z,27.10
2023-06-19T02:47:00.762Z,27.00
2023-06-19T02:49:30.827Z,27.00
2023-06-19T02:52:06.180Z,27.10
2023-06-19T02:54:34.099Z,27.00
2023-06-19T02:57:09.789Z,27.00
2023-06-19T02:59:39.045Z,27.00
2023-06-19T03:02:07.396Z,27.40
2023-06-19T03:04:35.359Z,27.60
2023-06-19T03:07:09.346Z,27.60
2023-06-19T03:09:40.261Z,27.70
2023-06-19T03:12:14.400Z,27.80
2023-06-19T03:14:43.674Z,27.80
2023-06-19T03:17:14.372Z,27.80
2023-06-19T03:19:45.234Z,27.70
2023-06-19T03:22:13.158Z,27.70
2023-06-19T03:24:59.389Z,27.70
2023-06-19T03:27:27.924Z,27.70
2023-06-19T03:29:59.936Z,27.60
2023-06-19T03:32:32.425Z,27.60
2023-06-19T03:35:00.607Z,27.60
2023-06-19T03:37:33.538Z,27.60
2023-06-19T03:40:04.270Z,27.50
2023-06-19T03:42:41.151Z,27.50
2023-06-19T03:45:25.392Z,27.40
2023-06-19T03:47:56.137Z,27.20
2023-06-19T03:50:27.624Z,27.30
2023-06-19T03:52:58.510Z,27.20
2023-06-19T03:55:26.696Z,27.20
2023-06-19T03:57:57.670Z,27.20
2023-06-19T04:00:29.950Z,27.10
2023-06-19T04:03:03.467Z,26.90
2023-06-19T04:05:31.551Z,26.90
2023-06-19T04:08:02.463Z,27.00
2023-06-19T04:10:30.384Z,27.00
2023-06-19T04:13:01.430Z,26.90
2023-06-19T04:15:34.148Z,26.70
2023-06-19T04:18:02.432Z,26.70
2023-06-19T04:20:30.427Z,26.80
2023-06-19T04:23:01.175Z,26.90
2023-06-19T04:25:31.306Z,26.90
2023-06-19T04:28:04.761Z,26.80
2023-06-19T04:30:40.338Z,26.70
2023-06-19T04:33:09.679Z,26.80
2023-06-19T04:35:40.923Z,26.80
2023-06-19T04:38:09.240Z,26.80
2023-06-19T04:40:39.454Z,26.70
2023-06-19T04:43:10.086Z,26.80
2023-06-19T04:45:39.323Z,26.80
2023-06-19T04:48:07.270Z,26.80
2023-06-19T04:50:37.579Z,26.90
2023-06-19T04:53:08.459Z,26.90
2023-06-19T04:55:46.128Z,27.00
2023-06-19T04:58:14.008Z,27.00
2023-06-19T05:00:43.238Z,26.80
2023-06-19T05:03:14.925Z,26.60
2023-06-19T05:05:42.826Z,26.60
2023-06-19T05:08:14.554Z,26.50
2023-06-19T05:10:44.279Z,26.60
2023-06-19T05:13:14.196Z,26.60
2023-06-19T05:15:43.484Z,26.70
2023-06-19T05:18:11.506Z,26.80
2023-06-19T05:20:46.854Z,26.80
2023-06-19T05:23:14.748Z,26.80
2023-06-19T05:25:47.693Z,26.90
2023-06-19T05:28:15.685Z,26.90
2023-06-19T05:30:45.672Z,26.90
2023-06-19T05:33:16.716Z,26.90
2023-06-19T05:35:44.791Z,26.90
2023-06-19T05:38:12.834Z,26.90
2023-06-19T05:40:43.788Z,27.00
2023-06-19T05:43:11.684Z,27.00
2023-06-19T05:45:40.344Z,26.90
2023-06-19T05:48:09.720Z,27.00
2023-06-19T05:50:37.785Z,27.00
2023-06-19T05:53:06.680Z,27.00
2023-06-19T05:55:34.704Z,27.00
2023-06-19T05:58:03.278Z,27.00
2023-06-19T06:00:31.326Z,27.00
2023-06-19T06:03:03.214Z,27.00
2023-06-19T06:05:32.588Z,27.10
2023-06-19T06:08:06.624Z,27.10
2023-06-19T06:10:34.911Z,27.20
2023-06-19T06:13:02.826Z,27.20
2023-06-19T06:15:30.904Z,27.20
2023-06-19T06:17:58.932Z,27.10
2023-06-19T06:20:26.999Z,27.20
2023-06-19T06:22:59.452Z,27.30
2023-06-19T06:25:27.396Z,27.30
2023-06-19T06:27:55.369Z,27.30
2023-06-19T06:30:23.976Z,27.30
2023-06-19T06:32:52.312Z,27.30
2023-06-19T06:35:20.426Z,27.20
2023-06-19T06:37:51.387Z,26.80
2023-06-19T06:40:23.462Z,26.80
2023-06-19T06:43:00.670Z,26.80
2023-06-19T06:45:34.205Z,26.80
2023-06-19T06:48:04.307Z,26.80
2023-06-19T06:50:44.577Z,26.90
2023-06-19T06:53:15.543Z,27.00
2023-06-19T06:55:47.923Z,27.00
2023-06-19T06:58:15.859Z,27.00
2023-06-19T07:00:57.983Z,27.10
2023-06-19T07:03:32.733Z,27.20
2023-06-19T07:06:00.883Z,27.20
2023-06-19T07:08:28.802Z,27.20
2023-06-19T07:11:01.245Z,27.30
2023-06-19T07:13:32.658Z,27.10
2023-06-19T07:16:02.482Z,26.70
2023-06-19T07:18:30.850Z,26.60
2023-06-19T07:21:01.333Z,26.40
2023-06-19T07:23:29.456Z,26.30
2023-06-19T07:25:57.435Z,26.20
2023-06-19T07:28:26.718Z,26.00
2023-06-19T07:30:54.602Z,26.10
2023-06-19T07:33:25.279Z,26.00
2023-06-19T07:35:53.175Z,26.00
2023-06-19T07:38:23.979Z,26.00
2023-06-19T07:40:57.794Z,26.10
2023-06-19T07:43:27.148Z,26.00
2023-06-19T07:45:55.072Z,26.10
2023-06-19T07:48:26.005Z,26.30
2023-06-19T07:50:58.318Z,26.30
2023-06-19T07:53:26.245Z,26.40
2023-06-19T07:55:54.322Z,26.50
2023-06-19T07:58:23.603Z,26.40
2023-06-19T08:00:55.704Z,26.60
2023-06-19T08:03:29.670Z,26.50
2023-06-19T08:06:03.769Z,26.60
2023-06-19T08:08:40.297Z,26.50
2023-06-19T08:11:08.245Z,26.50
2023-06-19T08:13:54.349Z,26.40
2023-06-19T08:16:27.837Z,26.50
2023-06-19T08:19:01.596Z,26.50
2023-06-19T08:21:29.512Z,26.60
2023-06-19T08:23:57.745Z,26.60
2023-06-19T08:26:25.955Z,26.80
2023-06-19T08:28:53.867Z,26.70
2023-06-19T08:31:22.736Z,26.70
2023-06-19T08:33:54.629Z,26.70
2023-06-19T08:36:22.934Z,26.70
2023-06-19T08:38:51.520Z,26.70
2023-06-19T08:41:25.540Z,26.80
2023-06-19T08:43:53.482Z,26.90
2023-06-19T08:46:24.468Z,26.90
2023-06-19T08:48:57.333Z,27.00
2023-06-19T08:51:43.544Z,27.10
2023-06-19T08:54:11.480Z,27.10
2023-06-19T08:56:42.244Z,27.00
2023-06-19T08:59:14.221Z,27.10
2023-06-19T09:01:52.718Z,27.10
2023-06-19T09:04:27.872Z,27.10
2023-06-19T09:06:57.686Z,27.20
2023-06-19T09:09:29.195Z,27.20
2023-06-19T09:12:00.502Z,27.10
2023-06-19T09:14:35.651Z,27.00
2023-06-19T09:17:11.798Z,27.10
2023-06-19T09:19:51.505Z,27.10
2023-06-19T09:22:20.760Z,27.10
2023-06-19T09:24:49.873Z,27.10
2023-06-19T09:27:20.246Z,27.10
2023-06-19T09:29:50.524Z,27.30
2023-06-19T09:32:19.871Z,27.30
2023-06-19T09:34:53.847Z,27.20
2023-06-19T09:37:25.705Z,27.30
2023-06-19T09:39:55.611Z,27.30
2023-06-19T09:42:33.135Z,27.30
2023-06-19T09:45:05.957Z,27.30
2023-06-19T09:47:39.591Z,27.40
2023-06-19T09:50:15.320Z,27.50
2023-06-19T09:52:47.037Z,27.50
2023-06-19T09:55:15.832Z,27.50
2023-06-19T09:57:45.665Z,27.60
2023-06-19T10:00:16.359Z,27.60
2023-06-19T10:02:46.392Z,27.60
2023-06-19T10:05:16.046Z,27.50
2023-06-19T10:07:46.422Z,27.60
2023-06-19T10:10:25.294Z,27.60
2023-06-19T10:12:55.954Z,27.70
2023-06-19T10:15:25.771Z,27.60
2023-06-19T10:17:55.336Z,27.70
2023-06-19T10:20:32.885Z,27.70
2023-06-19T10:23:06.284Z,27.70
2023-06-19T10:25:38.914Z,27.70
2023-06-19T10:28:17.890Z,27.80
2023-06-19T10:30:53.495Z,27.80
2023-06-19T10:33:27.209Z,27.90
2023-06-19T10:35:57.327Z,27.90
2023-06-19T10:38:25.240Z,27.90
2023-06-19T10:40:53.383Z,27.90
2023-06-19T10:43:29.208Z,27.80
2023-06-19T10:45:57.189Z,27.90
2023-06-19T10:48:26.623Z,28.00
2023-06-19T10:50:58.340Z,27.90
2023-06-19T10:53:29.726Z,28.00
2023-06-19T10:55:58.384Z,28.00
2023-06-19T10:58:28.965Z,28.00
2023-06-19T11:00:58.001Z,28.00
2023-06-19T11:03:26.145Z,28.10
2023-06-19T11:05:58.569Z,28.00
2023-06-19T11:08:27.112Z,28.00
2023-06-19T11:10:55.114Z,27.90
2023-06-19T11:13:23.405Z,27.80
2023-06-19T11:15:52.225Z,27.70
2023-06-19T11:18:20.892Z,27.50
2023-06-19T11:20:51.767Z,27.30
2023-06-19T11:23:27.751Z,27.30
2023-06-19T11:25:57.622Z,27.20
2023-06-19T11:28:30.439Z,27.10
2023-06-19T11:31:02.596Z,27.20
2023-06-19T11:33:34.403Z,27.20
2023-06-19T11:36:03.864Z,27.20
2023-06-19T11:38:34.387Z,27.20
2023-06-19T11:41:02.525Z,27.20
2023-06-19T11:43:34.658Z,27.20
2023-06-19T11:46:12.921Z,27.30
2023-06-19T11:49:03.097Z,27.40
2023-06-19T11:51:34.752Z,27.50
2023-06-19T11:54:09.461Z,27.50
2023-06-19T11:56:41.180Z,27.60
2023-06-19T11:59:12.177Z,27.70
2023-06-19T12:01:40.220Z,27.70
2023-06-19T12:04:09.908Z,27.80
2023-06-19T12:06:38.570Z,27.90
2023-06-19T12:09:07.921Z,27.90
2023-06-19T12:11:35.845Z,27.90
2023-06-19T12:14:03.815Z,28.00
2023-06-19T12:16:31.761Z,28.00
2023-06-19T12:18:59.734Z,28.00
2023-06-19T12:21:38.654Z,28.10
2023-06-19T12:24:09.814Z,28.10
2023-06-19T12:26:38.754Z,28.00
2023-06-19T12:29:07.870Z,28.10
2023-06-19T12:31:37.103Z,28.10
2023-06-19T12:34:17.054Z,28.10
2023-06-19T12:36:53.315Z,28.10
2023-06-19T12:39:22.845Z,28.20
2023-06-19T12:41:53.728Z,28.20
2023-06-19T12:44:27.652Z,28.30
2023-06-19T12:46:55.736Z,28.40
2023-06-19T12:49:30.127Z,28.40
2023-06-19T12:51:58.112Z,28.40
2023-06-19T12:54:28.312Z,28.50
2023-06-19T12:56:56.505Z,28.50
2023-06-19T12:59:24.433Z,28.60
2023-06-19T13:01:52.467Z,28.80
2023-06-19T13:04:20.489Z,28.80
2023-06-19T13:06:48.482Z,28.80
2023-06-19T13:09:16.569Z,28.80
2023-06-19T13:11:55.124Z,28.90
2023-06-19T13:14:23.040Z,28.90
2023-06-19T13:16:51.014Z,28.80
2023-06-19T13:19:27.322Z,28.80
2023-06-19T13:21:55.527Z,28.60
2023-06-19T13:24:23.474Z,28.50
2023-06-19T13:26:52.859Z,28.50
2023-06-19T13:29:24.705Z,28.60
2023-06-19T13:31:52.594Z,28.60
2023-06-19T13:34:22.504Z,28.70
2023-06-19T13:36:50.510Z,28.70
2023-06-19T13:39:21.087Z,28.70
2023-06-19T13:41:49.194Z,28.70
2023-06-19T13:44:19.964Z,28.80
2023-06-19T13:46:48.110Z,28.90
2023-06-19T13:49:16.375Z,28.90
2023-06-19T13:51:45.238Z,28.90
2023-06-19T13:54:14.178Z,28.90
2023-06-19T13:56:43.384Z,28.90
2023-06-19T13:59:18.657Z,29.00
2023-06-19T14:01:46.620Z,29.00
2023-06-19T14:04:17.724Z,29.20
2023-06-19T14:06:45.676Z,29.20
2023-06-19T14:09:14.935Z,29.20
2023-06-19T14:11:43.768Z,29.20
2023-06-19T14:14:16.874Z,29.20
2023-06-19T14:16:46.197Z,29.10
2023-06-19T14:19:14.197Z,29.20
2023-06-19T14:21:42.083Z,29.10
2023-06-19T14:24:10.012Z,29.20
2023-06-19T14:26:38.037Z,29.20
2023-06-19T14:29:09.329Z,29.20
2023-06-19T14:31:37.316Z,29.30
2023-06-19T14:34:06.594Z,29.40
2023-06-19T14:36:42.061Z,29.40
2023-06-19T14:39:10.416Z,29.30
2023-06-19T14:41:38.313Z,29.30
2023-06-19T14:44:06.936Z,29.20
2023-06-19T14:46:47.097Z,28.90
2023-06-19T14:49:16.548Z,29.20
2023-06-19T14:51:46.949Z,29.30
2023-06-19T14:54:16.823Z,29.30
2023-06-19T14:56:45.139Z,29.30
2023-06-19T14:59:16.331Z,29.40
2023-06-19T15:01:44.671Z,29.40
2023-06-19T15:04:24.025Z,29.50
2023-06-19T15:06:58.750Z,29.50
2023-06-19T15:09:28.519Z,29.50
2023-06-19T15:11:56.449Z,29.50
2023-06-19T15:14:24.414Z,29.60
2023-06-19T15:16:52.345Z,29.60
2023-06-19T15:19:33.340Z,29.60
2023-06-19T15:22:01.308Z,29.50
2023-06-19T15:24:29.307Z,29.60
2023-06-19T15:26:59.097Z,29.70
2023-06-19T15:29:27.078Z,29.80
2023-06-19T15:31:55.047Z,29.80
2023-06-19T15:34:22.943Z,29.90
2023-06-19T15:36:52.233Z,29.90
2023-06-19T15:39:20.184Z,29.80
2023-06-19T15:41:48.092Z,29.80
2023-06-19T15:44:18.833Z,29.80
2023-06-19T15:46:46.744Z,29.90
2023-06-19T15:49:19.325Z,29.90
2023-06-19T15:51:47.261Z,29.90
2023-06-19T15:54:16.561Z,29.80
2023-06-19T15:56:47.293Z,29.70
2023-06-19T15:59:15.829Z,29.40
2023-06-19T16:01:43.734Z,29.20
2023-06-19T16:04:11.996Z,29.50
2023-06-19T16:06:53.945Z,29.60
2023-06-19T16:09:24.351Z,29.40
2023-06-19T16:11:54.005Z,29.20
2023-06-19T16:14:24.335Z,29.30
2023-06-19T16:16:58.671Z,29.40
2023-06-19T16:19:29.269Z,29.60
2023-06-19T16:22:00.512Z,29.70
2023-06-19T16:24:30.119Z,29.90
2023-06-19T16:26:58.139Z,29.90
2023-06-19T16:29:26.066Z,29.90
2023-06-19T16:32:08.184Z,30.10
2023-06-19T16:34:37.312Z,30.00
2023-06-19T16:37:05.657Z,30.00
2023-06-19T16:39:35.115Z,30.00
2023-06-19T16:42:03.861Z,30.00
2023-06-19T16:44:31.811Z,30.00
2023-06-19T16:47:02.754Z,30.00
2023-06-19T16:49:30.750Z,30.00
2023-06-19T16:51:58.671Z,30.10
2023-06-19T16:54:26.620Z,30.10
2023-06-19T16:56:56.639Z,30.20
2023-06-19T16:59:24.606Z,30.10
2023-06-19T17:01:52.567Z,30.10
2023-06-19T17:04:20.651Z,30.20
2023-06-19T17:06:48.724Z,30.10
2023-06-19T17:09:16.666Z,30.00
2023-06-19T17:11:47.647Z,29.90
2023-06-19T17:14:16.902Z,29.70
2023-06-19T17:16:44.917Z,29.70
2023-06-19T17:19:12.900Z,29.80
2023-06-19T17:21:40.865Z,29.80
2023-06-19T17:24:16.428Z,29.80
2023-06-19T17:26:48.378Z,29.70
2023-06-19T17:29:17.617Z,29.80
2023-06-19T17:31:45.528Z,29.80
2023-06-19T17:34:16.260Z,29.80
2023-06-19T17:36:46.469Z,29.80
2023-06-19T17:39:14.645Z,29.80
2023-06-19T17:41:45.395Z,29.80
2023-06-19T17:44:13.374Z,29.80
2023-06-19T17:46:45.169Z,29.80
2023-06-19T17:49:13.733Z,29.80
2023-06-19T17:51:47.659Z,30.00
2023-06-19T17:54:15.664Z,30.00
2023-06-19T17:56:44.111Z,30.00
2023-06-19T17:59:13.576Z,29.90
2023-06-19T18:01:50.664Z,29.90
2023-06-19T18:04:18.796Z,29.80
2023-06-19T18:06:46.795Z,29.80
2023-06-19T18:09:15.967Z,29.70
2023-06-19T18:11:47.335Z,29.60
2023-06-19T18:14:15.271Z,29.40
2023-06-19T18:16:43.883Z,29.40
2023-06-19T18:19:13.527Z,29.30
2023-06-19T18:21:44.401Z,29.20
2023-06-19T18:24:12.556Z,29.20
2023-06-19T18:26:40.484Z,29.20
2023-06-19T18:29:10.610Z,29.20
2023-06-19T18:31:44.674Z,29.30
2023-06-19T18:34:14.001Z,29.30
2023-06-19T18:36:41.929Z,29.30
2023-06-19T18:39:10.144Z,29.30
2023-06-19T18:41:39.846Z,29.30
2023-06-19T18:44:07.747Z,29.30
2023-06-19T18:46:35.707Z,29.30
2023-06-19T18:49:03.680Z,29.30
2023-06-19T18:51:35.964Z,29.30
2023-06-19T18:54:03.951Z,29.30
2023-06-19T18:56:34.708Z,29.30
2023-06-19T18:59:14.919Z,29.30
2023-06-19T19:01:42.904Z,29.30
2023-06-19T19:04:13.265Z,29.20
2023-06-19T19:06:42.526Z,29.20
2023-06-19T19:09:10.479Z,29.10
2023-06-19T19:11:38.529Z,29.10
2023-06-19T19:14:06.428Z,29.10
2023-06-19T19:16:34.412Z,29.10
2023-06-19T19:19:02.340Z,29.00
2023-06-19T19:21:36.192Z,28.80
2023-06-19T19:24:11.574Z,28.60
2023-06-19T19:26:39.530Z,28.50
2023-06-19T19:29:07.458Z,28.60
2023-06-19T19:31:41.463Z,28.70
2023-06-19T19:34:19.660Z,28.70
2023-06-19T19:36:48.665Z,28.80
2023-06-19T19:39:23.404Z,28.80
2023-06-19T19:41:51.301Z,28.70
2023-06-19T19:44:19.191Z,28.70
2023-06-19T19:46:47.177Z,28.80
2023-06-19T19:49:15.075Z,28.80
2023-06-19T19:51:43.226Z,28.80
2023-06-19T19:54:11.153Z,28.70
2023-06-19T19:56:40.419Z,28.60
2023-06-19T19:59:11.409Z,28.50
2023-06-19T20:01:39.364Z,28.40
2023-06-19T20:04:17.386Z,28.30
2023-06-19T20:06:45.660Z,28.30
2023-06-19T20:09:22.566Z,28.50
2023-06-19T20:12:16.360Z,28.80
2023-06-19T20:14:48.297Z,29.00
2023-06-19T20:17:16.341Z,29.00
2023-06-19T20:19:50.229Z,29.00
2023-06-19T20:22:20.969Z,29.00
2023-06-19T20:24:54.356Z,29.00
2023-06-19T20:27:23.698Z,28.90
2023-06-19T20:29:51.572Z,28.80
2023-06-19T20:32:28.271Z,28.60
2023-06-19T20:34:58.928Z,28.60
2023-06-19T20:37:26.855Z,28.60
2023-06-19T20:39:57.604Z,28.50
2023-06-19T20:42:35.483Z,28.50
2023-06-19T20:45:03.498Z,28.50
2023-06-19T20:47:31.489Z,28.40
2023-06-19T20:50:02.409Z,28.40
2023-06-19T20:52:36.438Z,28.40
2023-06-19T20:55:06.735Z,28.40
2023-06-19T20:57:47.248Z,28.30
2023-06-19T21:00:18.770Z,28.30
2023-06-19T21:02:47.001Z,28.30
2023-06-19T21:05:16.274Z,28.30
2023-06-19T21:07:48.180Z,28.40
2023-06-19T21:10:19.269Z,28.40
2023-06-19T21:12:48.558Z,28.30
2023-06-19T21:15:18.983Z,28.20
2023-06-19T21:17:47.045Z,28.20
2023-06-19T21:20:18.152Z,28.10
2023-06-19T21:22:46.081Z,28.10
2023-06-19T21:25:16.240Z,28.00
2023-06-19T21:27:48.672Z,28.00
2023-06-19T21:30:17.176Z,27.90
2023-06-19T21:32:47.533Z,28.00
2023-06-19T21:35:18.287Z,27.90
2023-06-19T21:37:46.193Z,27.90
2023-06-19T21:40:17.034Z,27.90
2023-06-19T21:42:55.384Z,27.80
2023-06-19T21:45:23.448Z,27.80
2023-06-19T21:47:57.671Z,27.80
2023-06-19T21:50:28.384Z,27.80
2023-06-19T21:52:56.438Z,27.70
2023-06-19T21:55:33.580Z,27.70
2023-06-19T21:58:05.547Z,27.70
2023-06-19T22:00:45.895Z,27.60
2023-06-19T22:03:13.877Z,27.60
2023-06-19T22:05:41.874Z,27.60
2023-06-19T22:08:14.171Z,27.60
2023-06-19T22:10:42.096Z,27.60
2023-06-19T22:13:20.206Z,27.70
2023-06-19T22:15:51.617Z,27.60
2023-06-19T22:18:20.006Z,27.60
2023-06-19T22:20:47.953Z,27.60
2023-06-19T22:23:15.933Z,27.60
2023-06-19T22:25:46.987Z,27.60
2023-06-19T22:28:16.499Z,27.60
2023-06-19T22:30:49.959Z,27.60
2023-06-19T22:33:17.864Z,27.50
2023-06-19T22:35:45.819Z,27.50
2023-06-19T22:38:18.995Z,27.50
2023-06-19T22:40:50.656Z,27.50
2023-06-19T22:43:22.321Z,27.40
2023-06-19T22:45:50.519Z,27.40
2023-06-19T22:48:27.447Z,27.40
2023-06-19T22:51:01.913Z,27.40
2023-06-19T22:53:32.966Z,27.40
2023-06-19T22:56:00.872Z,27.30
2023-06-19T22:58:32.389Z,27.30
2023-06-19T23:01:06.218Z,27.30
2023-06-19T23:03:43.173Z,27.30
2023-06-19T23:06:11.687Z,27.30
2023-06-19T23:08:44.851Z,27.30
2023-06-19T23:11:13.167Z,27.30
2023-06-19T23:13:44.933Z,27.20
2023-06-19T23:16:15.964Z,27.20
2023-06-19T23:18:46.865Z,27.20
2023-06-19T23:21:14.794Z,27.20
2023-06-19T23:23:48.445Z,27.20
2023-06-19T23:26:24.481Z,27.10
2023-06-19T23:28:56.793Z,27.10
2023-06-19T23:31:27.610Z,27.10
2023-06-19T23:34:00.187Z,27.10
2023-06-19T23:36:28.594Z,27.10
2023-06-19T23:38:57.124Z,27.10
2023-06-19T23:41:25.111Z,27.10
2023-06-19T23:44:05.019Z,27.10
2023-06-19T23:46:33.007Z,27.00
2023-06-19T23:49:09.922Z,27.00
2023-06-19T23:51:37.988Z,27.00
2023-06-19T23:54:08.920Z,27.00
2023-06-19T23:56:36.821Z,27.00
2023-06-19T23:59:09.113Z,27.00
